Time;durP1;ratioP1;P1;durP2;ratioP2;P2;SDS_P1;SDS_P2;PMS_P1;PMS_P2;Temp;Humidity;BMP_temperature;BMP_pressure;BME280_temperature;BME280_humidity;BME280_pressure;Samples;Min_cycle;Max_cycle;Signal;HPM_P1;HPM_P2
2022/07/12 00:00:25;;;;;;;3.43;1.53;;;23.50;69.80;;;;;;5057827;28;20198;-83
2022/07/12 00:02:52;;;;;;;4.17;2.07;;;23.40;70.00;;;;;;5044387;28;20592;-83
2022/07/12 00:05:19;;;;;;;3.20;1.30;;;23.30;70.30;;;;;;5080084;28;20198;-83
2022/07/12 00:07:47;;;;;;;4.07;1.60;;;23.30;70.50;;;;;;5080144;28;20235;-83
2022/07/12 00:10:14;;;;;;;3.70;1.30;;;23.20;70.60;;;;;;5078046;28;20225;-82
2022/07/12 00:12:41;;;;;;;2.67;1.20;;;23.20;70.80;;;;;;5059208;28;20206;-83
2022/07/12 00:15:10;;;;;;;3.40;1.27;;;23.20;70.80;;;;;;5074947;28;20661;-83
2022/07/12 00:17:38;;;;;;;2.00;1.20;;;23.20;70.80;;;;;;5075189;28;20197;-83
2022/07/12 00:20:06;;;;;;;7.93;1.40;;;23.20;70.80;;;;;;5074797;28;20675;-83
2022/07/12 00:22:33;;;;;;;4.27;1.30;;;23.20;71.00;;;;;;5073679;28;20215;-83
2022/07/12 00:25:00;;;;;;;2.97;1.37;;;23.20;71.00;;;;;;5075672;28;20303;-83
2022/07/12 00:27:28;;;;;;;4.03;1.80;;;23.20;70.90;;;;;;5044221;28;20584;-83
2022/07/12 00:29:56;;;;;;;4.27;1.30;;;23.20;70.90;;;;;;5064820;28;20230;-83
2022/07/12 00:32:23;;;;;;;3.90;1.20;;;23.30;70.90;;;;;;5059329;28;20210;-82
2022/07/12 00:34:51;;;;;;;2.63;1.20;;;23.30;70.80;;;;;;5067445;28;20242;-82
2022/07/12 00:37:18;;;;;;;4.97;1.37;;;23.30;70.90;;;;;;5064355;28;20289;-83
2022/07/12 00:39:45;;;;;;;8.57;1.63;;;23.20;71.00;;;;;;5072024;28;20532;-83
2022/07/12 00:42:12;;;;;;;1.50;1.23;;;23.30;71.10;;;;;;5078698;28;20709;-83
2022/07/12 00:44:39;;;;;;;2.97;1.40;;;23.20;71.10;;;;;;5073505;28;20639;-83
2022/07/12 00:47:06;;;;;;;7.37;1.50;;;23.30;71.20;;;;;;5077692;28;20280;-83
2022/07/12 00:49:34;;;;;;;5.43;1.57;;;23.30;71.10;;;;;;5083598;28;20610;-82
2022/07/12 00:52:01;;;;;;;1.80;1.30;;;23.30;71.00;;;;;;5074375;28;20205;-83
2022/07/12 00:54:28;;;;;;;3.23;1.40;;;23.40;71.00;;;;;;5079281;28;20597;-83
2022/07/12 00:56:56;;;;;;;3.80;1.50;;;23.40;71.00;;;;;;5076116;28;20181;-83
2022/07/12 00:59:23;;;;;;;3.83;1.60;;;23.40;70.90;;;;;;5071518;28;20280;-82
2022/07/12 01:01:50;;;;;;;3.33;1.23;;;23.40;70.80;;;;;;5078661;28;20204;-83
2022/07/12 01:04:18;;;;;;;5.67;1.40;;;23.40;70.70;;;;;;5082866;28;20202;-83
2022/07/12 01:06:46;;;;;;;4.17;1.73;;;23.40;70.70;;;;;;5080894;28;20277;-83
2022/07/12 01:09:13;;;;;;;5.73;1.67;;;23.40;70.70;;;;;;5080337;28;20239;-83
2022/07/12 01:11:40;;;;;;;2.50;1.60;;;23.30;70.80;;;;;;5048646;28;20267;-82
2022/07/12 01:14:08;;;;;;;7.03;1.80;;;23.40;70.90;;;;;;5076725;28;20266;-83
2022/07/12 01:16:37;;;;;;;2.13;1.50;;;23.30;71.00;;;;;;5076285;28;20222;-83
2022/07/12 01:19:06;;;;;;;3.70;1.80;;;23.20;71.00;;;;;;5074690;28;20200;-83
2022/07/12 01:21:37;;;;;;;7.00;1.43;;;23.20;71.20;;;;;;5071603;28;20229;-83
2022/07/12 01:24:08;;;;;;;5.67;1.57;;;23.20;71.40;;;;;;5067248;28;20634;-83
2022/07/12 01:26:36;;;;;;;2.67;1.40;;;23.20;71.50;;;;;;5075422;28;20202;-83
2022/07/12 01:29:05;;;;;;;3.43;1.57;;;23.20;71.70;;;;;;5058326;28;20221;-83
2022/07/12 01:31:35;;;;;;;5.70;2.00;;;23.20;71.80;;;;;;5075722;28;20205;-83
2022/07/12 01:34:03;;;;;;;1.60;1.50;;;23.20;71.90;;;;;;5075817;28;20202;-83
2022/07/12 01:36:30;;;;;;;5.93;1.80;;;23.20;71.90;;;;;;5077280;28;20198;-83
2022/07/12 01:38:58;;;;;;;2.50;1.73;;;23.20;71.90;;;;;;5082309;28;20205;-83
2022/07/12 01:41:25;;;;;;;4.67;1.73;;;23.30;72.00;;;;;;5077405;28;20198;-83
2022/07/12 01:43:53;;;;;;;4.73;1.60;;;23.30;72.00;;;;;;5075170;28;20193;-83
2022/07/12 01:46:20;;;;;;;3.97;1.60;;;23.30;72.00;;;;;;5074673;28;20233;-83
2022/07/12 01:48:47;;;;;;;3.67;1.60;;;23.30;71.90;;;;;;5075970;28;20293;-83
2022/07/12 01:51:15;;;;;;;2.60;1.70;;;23.40;72.60;;;;;;5076316;28;20637;-82
2022/07/12 01:53:42;;;;;;;3.10;1.90;;;23.40;71.80;;;;;;5062180;28;20240;-82
2022/07/12 01:56:10;;;;;;;2.77;2.07;;;23.50;71.80;;;;;;5067352;28;20568;-83
2022/07/12 01:58:37;;;;;;;4.33;1.47;;;23.50;71.70;;;;;;5071785;28;20194;-83
2022/07/12 02:01:05;;;;;;;2.43;1.20;;;23.50;71.70;;;;;;5067112;28;20237;-83
2022/07/12 02:03:36;;;;;;;2.60;1.43;;;23.50;71.60;;;;;;5060865;28;20199;-82
2022/07/12 02:06:04;;;;;;;5.60;1.60;;;23.50;71.50;;;;;;5075911;28;20228;-82
2022/07/12 02:08:31;;;;;;;3.63;1.30;;;23.50;71.50;;;;;;5064937;28;20621;-83
2022/07/12 02:10:58;;;;;;;4.40;1.57;;;23.60;71.40;;;;;;5077091;28;20263;-83
2022/07/12 02:13:26;;;;;;;4.37;1.47;;;23.60;71.40;;;;;;5061859;28;20642;-83
2022/07/12 02:15:53;;;;;;;2.87;1.47;;;23.60;71.50;;;;;;5066592;28;20312;-82
2022/07/12 02:18:20;;;;;;;2.70;1.37;;;23.60;71.50;;;;;;5071422;28;20541;-83
2022/07/12 02:20:48;;;;;;;3.93;1.40;;;23.60;71.40;;;;;;5073701;28;20524;-83
2022/07/12 02:23:15;;;;;;;2.60;1.30;;;23.60;71.40;;;;;;5088871;28;20291;-83
2022/07/12 02:25:42;;;;;;;3.07;1.40;;;23.60;71.30;;;;;;5075214;28;20720;-84
2022/07/12 02:28:10;;;;;;;3.10;1.40;;;23.60;71.30;;;;;;5061754;28;20287;-83
2022/07/12 02:30:39;;;;;;;2.37;1.43;;;23.60;71.30;;;;;;5057700;28;20317;-83
2022/07/12 02:33:07;;;;;;;3.47;1.40;;;23.60;71.30;;;;;;5076927;28;20221;-83
2022/07/12 02:35:34;;;;;;;3.87;1.60;;;23.60;71.30;;;;;;5085166;28;20233;-82
2022/07/12 02:38:02;;;;;;;3.07;1.50;;;23.60;71.30;;;;;;5075503;28;20213;-83
2022/07/12 02:43:33;;;;;;;4.20;1.50;;;23.60;71.50;;;;;;5054051;28;20207;-82
2022/07/12 02:46:05;;;;;;;6.27;1.30;;;23.60;71.50;;;;;;5064362;28;20717;-81
2022/07/12 02:48:34;;;;;;;7.03;1.70;;;23.60;71.70;;;;;;5054798;28;20206;-82
2022/07/12 02:51:02;;;;;;;4.77;1.10;;;23.60;71.60;;;;;;5053778;28;20224;-82
2022/07/12 02:53:31;;;;;;;4.13;1.67;;;23.60;71.70;;;;;;5056841;28;20220;-82
2022/07/12 02:56:08;;;;;;;5.57;1.40;;;23.60;71.60;;;;;;5071393;28;20240;-82
2022/07/12 02:58:36;;;;;;;3.93;1.33;;;23.60;71.60;;;;;;5056033;28;20225;-82
2022/07/12 03:01:05;;;;;;;5.13;1.37;;;23.60;71.60;;;;;;5070567;28;20202;-82
2022/07/12 03:03:32;;;;;;;2.90;1.80;;;23.60;72.10;;;;;;5068762;28;20202;-81
2022/07/12 03:06:00;;;;;;;3.97;1.50;;;23.60;71.50;;;;;;5074373;28;20220;-82
2022/07/12 03:08:27;;;;;;;7.50;1.83;;;23.60;71.50;;;;;;5062382;28;20217;-83
2022/07/12 03:10:55;;;;;;;3.83;1.30;;;23.60;71.50;;;;;;5074531;28;20292;-82
2022/07/12 03:13:22;;;;;;;2.87;1.43;;;23.60;71.60;;;;;;5065991;28;20238;-82
2022/07/12 03:15:50;;;;;;;1.80;1.60;;;23.60;71.60;;;;;;5072556;28;20313;-82
2022/07/12 03:18:17;;;;;;;1.67;1.23;;;23.60;71.60;;;;;;5059012;28;20233;-81
2022/07/12 03:20:48;;;;;;;3.23;1.23;;;23.60;71.70;;;;;;5074276;28;20200;-82
2022/07/12 03:23:15;;;;;;;1.87;1.40;;;23.60;71.80;;;;;;5069933;28;20190;-82
2022/07/12 03:25:43;;;;;;;2.83;1.63;;;23.60;71.80;;;;;;5068155;28;20233;-82
2022/07/12 03:28:11;;;;;;;1.60;1.50;;;23.50;71.90;;;;;;5058871;28;20622;-82
2022/07/12 03:30:39;;;;;;;1.60;1.50;;;23.50;71.90;;;;;;5068116;28;20222;-82
2022/07/12 03:33:07;;;;;;;2.63;1.47;;;23.50;72.00;;;;;;5054934;28;20218;-82
2022/07/12 03:35:35;;;;;;;5.70;1.40;;;23.50;72.00;;;;;;5066400;28;20696;-83
2022/07/12 03:38:03;;;;;;;1.43;1.10;;;23.50;72.10;;;;;;5060318;28;20206;-82
2022/07/12 03:40:34;;;;;;;2.33;1.30;;;23.50;72.10;;;;;;5077185;28;20208;-82
2022/07/12 03:43:04;;;;;;;3.73;1.40;;;23.50;72.10;;;;;;5082419;28;20209;-81
2022/07/12 03:45:35;;;;;;;5.20;1.40;;;23.50;72.20;;;;;;5073884;28;20216;-82
2022/07/12 03:48:03;;;;;;;3.63;1.27;;;23.50;72.20;;;;;;5058100;28;20695;-82
2022/07/12 03:50:32;;;;;;;2.57;1.40;;;23.40;72.20;;;;;;5074345;28;20209;-82
2022/07/12 03:53:00;;;;;;;5.97;1.73;;;23.40;72.30;;;;;;5058074;28;20220;-82
2022/07/12 03:55:28;;;;;;;1.60;1.30;;;23.40;72.30;;;;;;5062355;28;20226;-83
2022/07/12 03:57:56;;;;;;;2.83;1.30;;;23.40;72.40;;;;;;5081361;28;20197;-82
2022/07/12 04:00:26;;;;;;;3.90;1.20;;;23.40;72.50;;;;;;5072368;28;20198;-82
2022/07/12 04:02:57;;;;;;;2.60;1.50;;;23.40;72.50;;;;;;5077821;28;20587;-82
2022/07/12 04:05:26;;;;;;;3.77;1.50;;;23.40;72.50;;;;;;5075796;28;20198;-83
2022/07/12 04:07:54;;;;;;;3.57;1.70;;;23.40;72.50;;;;;;5067761;28;20233;-82
2022/07/12 04:10:22;;;;;;;2.10;1.47;;;23.40;72.60;;;;;;5078555;28;20256;-81
2022/07/12 04:12:49;;;;;;;0.90;0.90;;;23.30;72.60;;;;;;5066479;28;20218;-82
2022/07/12 04:15:22;;;;;;;1.50;1.17;;;23.30;72.60;;;;;;5074897;28;20210;-82
2022/07/12 04:17:49;;;;;;;3.37;1.63;;;23.30;72.70;;;;;;5054072;28;20202;-84
2022/07/12 04:20:16;;;;;;;1.80;1.40;;;23.30;72.70;;;;;;5080478;28;20284;-84
2022/07/12 04:22:45;;;;;;;4.40;1.40;;;23.30;72.70;;;;;;5079419;28;20202;-83
2022/07/12 04:25:15;;;;;;;3.90;1.30;;;23.30;72.80;;;;;;5076594;28;20264;-83
2022/07/12 04:27:42;;;;;;;2.60;1.00;;;23.30;72.80;;;;;;5077343;28;20245;-82
2022/07/12 04:30:10;;;;;;;4.03;1.33;;;23.30;72.70;;;;;;5071671;28;20228;-82
2022/07/12 04:32:38;;;;;;;1.93;1.47;;;23.40;72.80;;;;;;5081727;28;20206;-83
2022/07/12 04:35:06;;;;;;;2.53;1.30;;;23.40;72.80;;;;;;5080913;28;20672;-83
2022/07/12 04:37:36;;;;;;;2.20;1.17;;;23.40;72.60;;;;;;5077131;28;20587;-82
2022/07/12 04:40:04;;;;;;;3.47;1.37;;;23.50;72.60;;;;;;5070560;28;20640;-83
2022/07/12 04:42:32;;;;;;;2.80;1.27;;;23.50;72.40;;;;;;5081174;28;20202;-82
2022/07/12 04:45:01;;;;;;;3.53;1.20;;;23.50;72.30;;;;;;5054703;28;20267;-83
2022/07/12 04:47:29;;;;;;;3.63;1.67;;;23.50;72.00;;;;;;5070246;28;20200;-83
2022/07/12 04:49:56;;;;;;;2.77;1.23;;;23.60;71.90;;;;;;5053302;28;20236;-82
2022/07/12 04:52:24;;;;;;;2.23;1.17;;;23.70;71.60;;;;;;5078509;28;20213;-83
2022/07/12 04:54:52;;;;;;;4.60;1.43;;;23.70;71.40;;;;;;5067176;28;20199;-83
2022/07/12 04:57:20;;;;;;;1.10;1.10;;;23.70;71.40;;;;;;5084040;28;20201;-82
2022/07/12 04:59:50;;;;;;;4.20;1.13;;;23.80;71.00;;;;;;5061103;28;20218;-83
2022/07/12 05:02:18;;;;;;;1.97;1.30;;;23.90;70.60;;;;;;5061222;28;20548;-84
2022/07/12 05:04:46;;;;;;;2.47;1.73;;;23.90;70.40;;;;;;5072536;28;20261;-83
2022/07/12 05:07:13;;;;;;;3.23;1.53;;;23.90;69.90;;;;;;5074549;28;20213;-85
2022/07/12 05:09:42;;;;;;;1.20;1.10;;;23.90;69.60;;;;;;5081346;28;20198;-83
2022/07/12 05:12:10;;;;;;;4.03;1.37;;;24.00;69.80;;;;;;5082383;28;20678;-83
2022/07/12 05:14:37;;;;;;;1.87;1.10;;;24.00;69.60;;;;;;5067042;28;20540;-83
2022/07/12 05:17:05;;;;;;;2.43;1.13;;;24.00;69.00;;;;;;5076022;28;20225;-83
2022/07/12 05:19:36;;;;;;;2.03;1.40;;;24.00;68.80;;;;;;5076205;28;20208;-82
2022/07/12 05:22:05;;;;;;;1.97;1.27;;;24.10;68.40;;;;;;5078245;28;20244;-82
2022/07/12 05:24:33;;;;;;;4.60;1.40;;;24.20;67.80;;;;;;5052575;28;20314;-82
2022/07/12 05:27:04;;;;;;;2.77;1.30;;;24.30;67.10;;;;;;5074989;28;20212;-83
2022/07/12 05:29:32;;;;;;;6.20;1.40;;;24.50;66.70;;;;;;5074479;28;20305;-83
2022/07/12 05:32:01;;;;;;;1.67;1.13;;;24.70;66.00;;;;;;5064139;28;20268;-82
2022/07/12 05:34:38;;;;;;;3.07;1.50;;;24.90;65.10;;;;;;5070865;28;20205;-83
2022/07/12 05:37:05;;;;;;;1.23;1.17;;;25.10;64.60;;;;;;5080085;28;20251;-83
2022/07/12 05:39:33;;;;;;;6.33;1.57;;;25.20;63.80;;;;;;5058118;28;20216;-82
2022/07/12 05:42:01;;;;;;;5.03;1.37;;;25.40;63.10;;;;;;5067026;28;20692;-84
2022/07/12 05:44:31;;;;;;;2.13;1.10;;;25.40;63.30;;;;;;5078170;28;20583;-83
2022/07/12 05:46:58;;;;;;;4.77;1.20;;;25.50;63.40;;;;;;5078463;28;20198;-83
2022/07/12 05:49:26;;;;;;;1.93;1.33;;;25.60;63.20;;;;;;5073993;28;20623;-81
2022/07/12 05:54:40;;;;;;;4.43;1.20;;;25.70;62.30;;;;;;5079225;28;20209;-81
2022/07/12 05:57:11;;;;;;;6.00;1.40;;;25.70;62.10;;;;;;5079633;28;20548;-81
2022/07/12 05:59:40;;;;;;;1.40;1.20;;;25.80;62.20;;;;;;5057008;28;20215;-81
2022/07/12 06:02:10;;;;;;;3.47;1.43;;;25.80;62.70;;;;;;5063143;28;20261;-83
2022/07/12 06:04:37;;;;;;;3.77;1.50;;;25.90;62.70;;;;;;5083262;28;20602;-82
2022/07/12 06:07:09;;;;;;;2.10;1.23;;;26.00;62.80;;;;;;5075266;28;20208;-82
2022/07/12 06:09:38;;;;;;;2.60;1.13;;;26.20;62.50;;;;;;5070470;28;20270;-83
2022/07/12 06:12:08;;;;;;;1.67;1.40;;;26.20;62.30;;;;;;5053347;28;20302;-83
2022/07/12 06:14:35;;;;;;;1.90;1.10;;;26.30;62.30;;;;;;5061375;28;20202;-84
2022/07/12 06:17:08;;;;;;;2.30;1.20;;;26.40;62.30;;;;;;5075735;28;20219;-81
2022/07/12 06:19:36;;;;;;;2.70;1.53;;;26.40;62.30;;;;;;5074154;28;20203;-84
2022/07/12 06:22:06;;;;;;;4.07;1.20;;;26.50;62.40;;;;;;5081012;28;20210;-83
2022/07/12 06:24:34;;;;;;;3.03;1.70;;;26.50;62.20;;;;;;5075971;28;20237;-84
2022/07/12 06:27:01;;;;;;;5.60;1.50;;;26.50;62.20;;;;;;5065427;28;20213;-80
2022/07/12 06:29:28;;;;;;;7.57;1.53;;;26.60;62.50;;;;;;5079308;28;20234;-81
2022/07/12 06:31:56;;;;;;;2.43;1.33;;;26.70;62.90;;;;;;5080534;28;20217;-82
2022/07/12 06:34:24;;;;;;;2.10;1.40;;;26.80;63.00;;;;;;5059441;28;20208;-82
2022/07/12 06:36:51;;;;;;;5.10;1.20;;;27.00;62.80;;;;;;5064200;28;20229;-81
2022/07/12 06:39:19;;;;;;;7.17;1.47;;;27.20;62.70;;;;;;5077523;28;20202;-80
2022/07/12 06:41:48;;;;;;;5.43;1.57;;;27.30;62.90;;;;;;5089235;28;20194;-81
2022/07/12 06:44:15;;;;;;;3.80;1.73;;;27.50;62.20;;;;;;5078698;28;20546;-81
2022/07/12 06:46:42;;;;;;;7.37;2.20;;;27.70;61.50;;;;;;5079214;28;20662;-81
2022/07/12 06:49:15;;;;;;;2.23;1.40;;;27.80;61.10;;;;;;5078011;28;20194;-81
2022/07/12 06:51:42;;;;;;;3.77;1.20;;;27.80;61.40;;;;;;5083810;28;20235;-81
2022/07/12 06:54:09;;;;;;;2.47;1.43;;;27.90;61.50;;;;;;5072037;28;20225;-82
2022/07/12 06:56:37;;;;;;;7.40;1.70;;;27.90;61.30;;;;;;5082288;28;20234;-81
2022/07/12 06:59:04;;;;;;;4.53;1.50;;;28.00;61.50;;;;;;5073234;28;20237;-81
2022/07/12 07:01:39;;;;;;;5.57;1.80;;;28.20;61.10;;;;;;5076954;28;20463;-80
2022/07/12 07:04:07;;;;;;;7.60;1.40;;;28.40;60.10;;;;;;5076192;28;20208;-81
2022/07/12 07:06:34;;;;;;;8.83;2.13;;;28.50;59.80;;;;;;5077984;28;20212;-81
2022/07/12 07:09:06;;;;;;;7.13;1.53;;;28.70;59.20;;;;;;5076704;28;20634;-82
2022/07/12 07:11:36;;;;;;;5.27;1.47;;;28.80;58.90;;;;;;5076165;28;20200;-81
2022/07/12 07:14:04;;;;;;;3.47;1.30;;;29.10;58.40;;;;;;5067338;28;20205;-81
2022/07/12 07:16:31;;;;;;;5.20;1.60;;;29.10;57.50;;;;;;5076754;28;20214;-80
2022/07/12 07:18:59;;;;;;;3.90;1.50;;;29.00;57.00;;;;;;5069967;28;20259;-80
2022/07/12 07:21:26;;;;;;;4.37;1.60;;;28.80;57.20;;;;;;5076249;28;20208;-81
2022/07/12 07:23:54;;;;;;;4.80;1.27;;;28.80;58.10;;;;;;5058127;28;20219;-81
2022/07/12 07:26:23;;;;;;;3.13;1.47;;;28.80;58.40;;;;;;5075828;28;20573;-80
2022/07/12 07:31:36;;;;;;;2.60;1.27;;;29.10;57.80;;;;;;5093796;28;20230;-81
2022/07/12 07:34:04;;;;;;;3.00;1.53;;;29.10;57.50;;;;;;5067362;28;20275;-80
2022/07/12 07:36:32;;;;;;;8.70;2.07;;;29.20;57.60;;;;;;5072864;28;20268;-80
2022/07/12 07:38:59;;;;;;;5.53;1.57;;;29.20;57.40;;;;;;5077410;28;20203;-81
2022/07/12 07:41:28;;;;;;;5.37;2.10;;;29.30;57.10;;;;;;5077349;28;20216;-81
2022/07/12 07:43:55;;;;;;;1.87;1.60;;;29.20;57.30;;;;;;5066720;28;20197;-82
2022/07/12 07:46:22;;;;;;;3.07;1.10;;;29.20;57.10;;;;;;5064872;28;20210;-81
2022/07/12 07:48:49;;;;;;;2.90;1.40;;;29.20;57.40;;;;;;5062232;28;20206;-81
2022/07/12 07:51:17;;;;;;;2.77;1.13;;;29.30;57.00;;;;;;5080523;28;20198;-81
2022/07/12 07:53:44;;;;;;;4.87;1.23;;;29.50;56.60;;;;;;5080088;28;20202;-81
2022/07/12 07:56:12;;;;;;;4.17;1.20;;;29.70;56.00;;;;;;5063009;28;20291;-82
2022/07/12 07:58:39;;;;;;;2.40;1.30;;;29.80;55.50;;;;;;5088132;28;20194;-81
2022/07/12 08:01:06;;;;;;;7.00;1.17;;;29.80;55.20;;;;;;5089774;28;20189;-80
2022/07/12 08:03:34;;;;;;;2.27;1.40;;;29.80;55.00;;;;;;5058654;28;20199;-81
2022/07/12 08:06:01;;;;;;;1.97;1.10;;;29.70;55.20;;;;;;5075839;28;20229;-81
2022/07/12 08:08:28;;;;;;;3.30;1.30;;;29.70;55.60;;;;;;5080212;28;20198;-81
2022/07/12 08:11:16;;;;;;;4.40;1.20;;;29.70;55.50;;;;;;5079200;28;20197;-81
2022/07/12 08:13:43;;;;;;;5.30;1.43;;;29.70;55.60;;;;;;5082039;28;20634;-82
2022/07/12 08:16:10;;;;;;;2.23;1.40;;;29.70;55.60;;;;;;5065885;28;20210;-80
2022/07/12 08:18:38;;;;;;;2.27;1.13;;;29.70;55.40;;;;;;5074079;28;20221;-81
2022/07/12 08:21:06;;;;;;;5.53;1.30;;;29.80;55.30;;;;;;5077919;28;20587;-81
2022/07/12 08:23:36;;;;;;;5.50;1.47;;;30.00;55.20;;;;;;5073727;28;20230;-80
2022/07/12 08:26:03;;;;;;;1.93;1.43;;;30.10;54.90;;;;;;5061039;28;20265;-82
2022/07/12 08:28:30;;;;;;;5.30;1.20;;;30.30;54.70;;;;;;5065625;28;20230;-81
2022/07/12 08:30:59;;;;;;;5.60;1.70;;;30.40;53.60;;;;;;5079360;28;20297;-82
2022/07/12 08:33:26;;;;;;;1.77;1.07;;;30.40;53.70;;;;;;5069390;28;20218;-82
2022/07/12 08:35:58;;;;;;;5.70;1.10;;;30.20;54.10;;;;;;5055450;28;20301;-82
2022/07/12 08:38:25;;;;;;;1.87;1.10;;;30.20;54.60;;;;;;5058880;28;20217;-81
2022/07/12 08:40:55;;;;;;;2.13;1.20;;;30.20;53.70;;;;;;5080679;28;20203;-83
2022/07/12 08:43:23;;;;;;;4.27;1.10;;;30.20;54.40;;;;;;5076107;28;20198;-82
2022/07/12 08:46:07;;;;;;;2.43;1.07;;;30.20;54.00;;;;;;5052259;28;20231;-81
2022/07/12 08:48:36;;;;;;;4.03;1.37;;;30.10;54.00;;;;;;5080961;28;20215;-81
2022/07/12 08:51:04;;;;;;;3.80;1.43;;;30.10;54.30;;;;;;5078395;28;20197;-81
2022/07/12 08:53:32;;;;;;;3.93;1.20;;;30.10;54.70;;;;;;5065944;28;20214;-82
2022/07/12 08:56:00;;;;;;;3.10;1.10;;;30.20;55.50;;;;;;5081517;28;20227;-81
2022/07/12 08:58:27;;;;;;;3.20;1.10;;;30.40;55.00;;;;;;5083724;28;20707;-82
2022/07/12 09:00:55;;;;;;;4.20;1.60;;;30.70;53.70;;;;;;5084383;28;20198;-82
2022/07/12 09:03:23;;;;;;;4.67;1.07;;;31.00;53.70;;;;;;5082104;28;20202;-81
2022/07/12 09:05:57;;;;;;;6.53;1.70;;;31.20;53.50;;;;;;5061951;28;20189;-80
2022/07/12 09:08:34;;;;;;;2.87;1.17;;;31.40;52.10;;;;;;5072767;28;20230;-81
2022/07/12 09:11:03;;;;;;;2.73;1.13;;;31.60;52.40;;;;;;5079534;28;20673;-81
2022/07/12 09:13:50;;;;;;;2.00;1.27;;;31.80;51.30;;;;;;5053384;28;20203;-82
2022/07/12 09:16:20;;;;;;;7.50;1.83;;;31.90;51.50;;;;;;5060501;28;20225;-81
2022/07/12 09:18:48;;;;;;;4.40;1.10;;;32.00;51.00;;;;;;5078098;28;20206;-83
2022/07/12 09:21:23;;;;;;;1.30;1.20;;;32.20;50.50;;;;;;5075628;28;20190;-82
2022/07/12 09:23:58;;;;;;;3.13;1.57;;;32.30;50.50;;;;;;5069568;28;20194;-82
2022/07/12 09:26:33;;;;;;;1.80;1.10;;;32.40;49.40;;;;;;5082839;28;20228;-81
2022/07/12 09:29:07;;;;;;;7.83;1.87;;;32.30;50.10;;;;;;5068429;28;20194;-82
2022/07/12 09:36:06;;;;;;;2.73;1.40;;;32.20;50.10;;;;;;5073035;28;20193;-81
2022/07/12 09:37:19;;;;;;;3.40;1.20;;;32.30;50.20;;;;;;5069809;28;20221;-81
2022/07/12 09:39:48;;;;;;;2.73;1.50;;;32.40;49.90;;;;;;5078550;28;20217;-82
2022/07/12 09:42:16;;;;;;;6.47;1.43;;;32.60;50.30;;;;;;5076233;28;20191;-81
2022/07/12 09:44:45;;;;;;;5.10;2.40;;;32.70;49.60;;;;;;5078416;28;20247;-82
2022/07/12 09:47:15;;;;;;;6.33;1.20;;;32.80;48.90;;;;;;5059130;28;20210;-81
2022/07/12 09:49:43;;;;;;;3.03;1.20;;;32.80;49.00;;;;;;5080466;28;20214;-81
2022/07/12 09:52:15;;;;;;;4.07;1.60;;;32.90;48.20;;;;;;5075444;28;20244;-81
2022/07/12 09:54:42;;;;;;;5.13;1.37;;;32.80;49.10;;;;;;5076689;28;20214;-81
2022/07/12 09:57:25;;;;;;;5.77;1.20;;;32.70;50.00;;;;;;5076638;28;20284;-81
2022/07/12 09:59:54;;;;;;;3.63;1.67;;;32.60;50.10;;;;;;5074818;28;20208;-80
2022/07/12 10:02:25;;;;;;;5.63;1.77;;;32.50;49.70;;;;;;5053764;28;20267;-81
2022/07/12 10:04:54;;;;;;;5.20;1.77;;;32.40;50.60;;;;;;5077718;28;20209;-81
2022/07/12 10:07:22;;;;;;;7.63;1.23;;;32.40;50.50;;;;;;5077076;28;20416;-84
2022/07/12 10:09:53;;;;;;;4.37;1.20;;;32.50;49.70;;;;;;5065143;28;20216;-81
2022/07/12 10:12:26;;;;;;;3.73;1.67;;;32.50;49.00;;;;;;5078099;28;20206;-81
2022/07/12 10:15:04;;;;;;;6.40;1.57;;;32.50;50.20;;;;;;5076846;28;20309;-81
2022/07/12 10:17:32;;;;;;;6.13;1.80;;;32.50;49.90;;;;;;5065047;28;20572;-81
2022/07/12 10:20:24;;;;;;;2.63;1.20;;;32.50;50.50;;;;;;5066535;28;20313;-81
2022/07/12 10:23:20;;;;;;;2.93;1.30;;;32.60;50.50;;;;;;5070966;28;20234;-81
2022/07/12 10:25:48;;;;;;;3.07;1.30;;;32.70;48.60;;;;;;5046794;28;20236;-81
2022/07/12 10:28:15;;;;;;;3.33;1.63;;;32.50;49.50;;;;;;5076088;28;20710;-80
2022/07/12 10:30:45;;;;;;;3.40;1.30;;;32.50;49.80;;;;;;5061812;28;20225;-81
2022/07/12 10:33:20;;;;;;;3.17;1.40;;;32.40;49.00;;;;;;5070797;28;20218;-82
2022/07/12 10:36:07;;;;;;;5.00;1.80;;;32.50;48.70;;;;;;5069856;28;20202;-82
2022/07/12 10:38:41;;;;;;;4.23;1.30;;;32.60;48.20;;;;;;5075784;28;20292;-81
2022/07/12 10:41:20;;;;;;;3.43;1.30;;;32.60;47.90;;;;;;5080975;28;20198;-82
2022/07/12 10:44:06;;;;;;;4.73;1.67;;;32.60;48.00;;;;;;5077011;28;20212;-81
2022/07/12 10:46:36;;;;;;;4.23;1.33;;;32.60;47.20;;;;;;5076284;28;20193;-81
2022/07/12 10:49:29;;;;;;;3.07;1.20;;;32.60;47.40;;;;;;5074428;28;20220;-81
2022/07/12 10:52:13;;;;;;;3.80;1.47;;;32.60;46.60;;;;;;5075609;28;20235;-81
2022/07/12 10:54:55;;;;;;;4.40;1.80;;;32.50;46.60;;;;;;5070965;28;20202;-81
2022/07/12 10:57:44;;;;;;;1.47;1.10;;;32.30;46.00;;;;;;5062783;28;20226;-80
2022/07/12 11:00:14;;;;;;;4.80;1.43;;;32.10;46.30;;;;;;5075328;28;20667;-82
2022/07/12 11:02:44;;;;;;;2.87;1.97;;;31.90;47.70;;;;;;5065681;28;20204;-80
2022/07/12 11:05:11;;;;;;;4.20;1.10;;;31.90;47.70;;;;;;5073778;28;20243;-82
2022/07/12 11:07:39;;;;;;;4.97;1.37;;;32.00;47.10;;;;;;5067712;28;20273;-82
2022/07/12 11:10:07;;;;;;;4.00;1.43;;;32.10;47.20;;;;;;5062585;28;20206;-81
2022/07/12 11:12:34;;;;;;;3.00;1.20;;;32.30;48.20;;;;;;5076942;28;20202;-81
2022/07/12 11:15:02;;;;;;;3.57;1.30;;;32.60;46.30;;;;;;5061518;28;20557;-80
2022/07/12 11:17:32;;;;;;;3.40;1.20;;;32.80;45.30;;;;;;5083215;28;20281;-80
2022/07/12 11:20:13;;;;;;;5.73;1.33;;;33.20;45.10;;;;;;5075741;28;20297;-81
2022/07/12 11:22:41;;;;;;;3.63;1.07;;;33.40;44.60;;;;;;5070269;28;20210;-81
2022/07/12 11:25:10;;;;;;;10.37;1.70;;;33.60;44.80;;;;;;5082352;28;20238;-82
2022/07/12 11:27:39;;;;;;;3.63;1.10;;;33.90;44.30;;;;;;5083108;28;20201;-80
2022/07/12 11:30:08;;;;;;;5.57;1.47;;;34.10;43.60;;;;;;5081350;28;20213;-80
2022/07/12 11:32:43;;;;;;;4.50;1.07;;;34.10;42.40;;;;;;5076941;28;20225;-81
2022/07/12 11:35:18;;;;;;;4.83;1.20;;;33.90;42.90;;;;;;5072381;28;20201;-82
2022/07/12 11:37:56;;;;;;;4.47;1.37;;;33.80;43.50;;;;;;5070775;28;20321;-81
2022/07/12 11:40:25;;;;;;;4.77;1.20;;;33.80;43.50;;;;;;5078898;28;20630;-81
2022/07/12 11:42:54;;;;;;;6.50;1.23;;;33.80;43.30;;;;;;5061217;28;20208;-81
2022/07/12 11:45:21;;;;;;;2.43;1.10;;;33.80;43.30;;;;;;5078527;28;20198;-81
2022/07/12 11:47:49;;;;;;;1.53;1.10;;;33.90;43.60;;;;;;5073930;28;20202;-82
2022/07/12 11:50:19;;;;;;;5.33;1.27;;;34.00;43.70;;;;;;5077509;28;20209;-80
2022/07/12 11:52:47;;;;;;;2.80;1.30;;;34.00;43.30;;;;;;5062534;28;20207;-82
2022/07/12 11:55:15;;;;;;;2.80;1.40;;;34.10;43.60;;;;;;5072657;28;20212;-80
2022/07/12 11:57:43;;;;;;;5.53;1.47;;;34.10;43.30;;;;;;5061601;28;20226;-82
2022/07/12 12:00:23;;;;;;;2.40;0.97;;;34.20;42.80;;;;;;5075061;28;20277;-81
2022/07/12 12:02:53;;;;;;;14.30;1.40;;;34.10;42.60;;;;;;5075459;28;20201;-81
2022/07/12 12:05:21;;;;;;;3.40;1.20;;;34.20;42.40;;;;;;5075485;28;20198;-80
2022/07/12 12:07:48;;;;;;;6.07;1.33;;;34.10;42.70;;;;;;5061385;28;20271;-81
2022/07/12 12:10:21;;;;;;;2.50;1.30;;;34.10;42.70;;;;;;5064539;28;20220;-80
2022/07/12 12:12:56;;;;;;;1.33;0.90;;;34.10;43.00;;;;;;5072978;28;20280;-81
2022/07/12 12:15:25;;;;;;;2.60;1.13;;;34.20;42.50;;;;;;5074197;28;20205;-82
2022/07/12 12:18:05;;;;;;;6.80;1.43;;;34.20;42.80;;;;;;5077791;28;20209;-81
2022/07/12 12:20:34;;;;;;;3.37;1.10;;;34.20;41.70;;;;;;5052459;28;20237;-81
2022/07/12 12:23:03;;;;;;;3.80;1.00;;;34.10;41.70;;;;;;5077275;28;20637;-81
2022/07/12 12:25:32;;;;;;;1.70;0.83;;;34.00;42.40;;;;;;5078277;28;20249;-81
2022/07/12 12:28:01;;;;;;;3.63;1.60;;;34.00;42.80;;;;;;5080545;28;20202;-81
2022/07/12 12:30:59;;;;;;;4.97;1.57;;;34.00;42.40;;;;;;5063418;28;20211;-81
2022/07/12 12:33:35;;;;;;;7.43;1.40;;;34.00;42.50;;;;;;5074118;28;20280;-81
2022/07/12 12:36:22;;;;;;;2.33;1.17;;;34.00;41.90;;;;;;5078309;28;20571;-81
2022/07/12 12:38:58;;;;;;;4.57;1.17;;;33.90;42.50;;;;;;5078567;28;20248;-81
2022/07/12 12:41:27;;;;;;;4.17;1.10;;;33.80;42.70;;;;;;5075217;28;20625;-81
2022/07/12 12:44:03;;;;;;;3.13;1.20;;;33.60;42.80;;;;;;5080103;28;20202;-81
2022/07/12 12:46:55;;;;;;;5.60;1.30;;;33.40;42.90;;;;;;5069351;28;20200;-81
2022/07/12 12:49:46;;;;;;;3.90;1.30;;;33.20;44.00;;;;;;5061038;28;20201;-82
2022/07/12 12:52:23;;;;;;;3.33;1.13;;;33.30;44.10;;;;;;5075251;28;20221;-80
2022/07/12 12:54:50;;;;;;;3.13;1.03;;;33.50;44.10;;;;;;5073230;28;20193;-81
2022/07/12 12:57:17;;;;;;;3.07;1.03;;;33.70;44.10;;;;;;5071950;28;20228;-82
2022/07/12 12:59:45;;;;;;;4.57;1.53;;;33.80;43.20;;;;;;5088911;28;20222;-82
2022/07/12 13:02:14;;;;;;;4.37;1.20;;;33.90;42.50;;;;;;5064592;28;20198;-81
2022/07/12 13:04:44;;;;;;;3.50;1.40;;;33.90;43.10;;;;;;5081428;28;20224;-80
2022/07/12 13:07:11;;;;;;;3.63;1.57;;;34.00;42.90;;;;;;5076066;28;20194;-81
2022/07/12 13:09:40;;;;;;;4.60;1.23;;;34.00;43.20;;;;;;5079428;28;20253;-82
2022/07/12 13:12:09;;;;;;;3.90;1.30;;;34.10;43.30;;;;;;5080444;28;20198;-81